sensor_id;sensor_type;location;lat;lon;timestamp;P1;durP1;ratioP1;P2;durP2;ratioP2
26052;SDS011;13826;51.186;4.450;2022-10-30T00:00:36;19.25;;;8.18;;
26052;SDS011;13826;51.186;4.450;2022-10-30T00:03:02;17.40;;;7.45;;
26052;SDS011;13826;51.186;4.450;2022-10-30T00:05:28;26.02;;;7.38;;
26052;SDS011;13826;51.186;4.450;2022-10-30T00:07:54;16.75;;;7.10;;
26052;SDS011;13826;51.186;4.450;2022-10-30T00:10:21;18.73;;;7.47;;
26052;SDS011;13826;51.186;4.450;2022-10-30T00:12:46;18.73;;;7.57;;
26052;SDS011;13826;51.186;4.450;2022-10-30T00:15:12;23.30;;;7.53;;
26052;SDS011;13826;51.186;4.450;2022-10-30T00:17:38;23.33;;;7.53;;
26052;SDS011;13826;51.186;4.450;2022-10-30T00:20:04;18.52;;;7.10;;
26052;SDS011;13826;51.186;4.450;2022-10-30T00:22:31;17.80;;;7.50;;
26052;SDS011;13826;51.186;4.450;2022-10-30T00:24:56;23.35;;;8.38;;
26052;SDS011;13826;51.186;4.450;2022-10-30T00:27:22;19.40;;;6.63;;
26052;SDS011;13826;51.186;4.450;2022-10-30T00:29:48;16.10;;;7.47;;
26052;SDS011;13826;51.186;4.450;2022-10-30T00:32:13;21.55;;;7.55;;
26052;SDS011;13826;51.186;4.450;2022-10-30T00:34:39;20.98;;;7.72;;
26052;SDS011;13826;51.186;4.450;2022-10-30T00:37:05;32.05;;;7.90;;
26052;SDS011;13826;51.186;4.450;2022-10-30T00:39:30;16.55;;;7.25;;
26052;SDS011;13826;51.186;4.450;2022-10-30T00:41:56;17.92;;;8.02;;
26052;SDS011;13826;51.186;4.450;2022-10-30T00:47:03;18.45;;;6.80;;
26052;SDS011;13826;51.186;4.450;2022-10-30T00:49:32;16.17;;;7.15;;
26052;SDS011;13826;51.186;4.450;2022-10-30T00:52:02;22.92;;;7.72;;
26052;SDS011;13826;51.186;4.450;2022-10-30T00:54:29;19.65;;;7.25;;
26052;SDS011;13826;51.186;4.450;2022-10-30T00:56:57;20.80;;;7.18;;
26052;SDS011;13826;51.186;4.450;2022-10-30T00:59:29;25.58;;;8.05;;
26052;SDS011;13826;51.186;4.450;2022-10-30T01:01:58;19.95;;;6.63;;
26052;SDS011;13826;51.186;4.450;2022-10-30T01:04:26;20.20;;;7.32;;
26052;SDS011;13826;51.186;4.450;2022-10-30T01:06:54;24.58;;;7.53;;
26052;SDS011;13826;51.186;4.450;2022-10-30T01:09:21;20.58;;;7.15;;
26052;SDS011;13826;51.186;4.450;2022-10-30T01:11:47;16.30;;;7.25;;
26052;SDS011;13826;51.186;4.450;2022-10-30T01:14:13;19.55;;;6.63;;
26052;SDS011;13826;51.186;4.450;2022-10-30T01:22:02;18.05;;;6.97;;
26052;SDS011;13826;51.186;4.450;2022-10-30T01:35:40;22.80;;;9.05;;
26052;SDS011;13826;51.186;4.450;2022-10-30T01:38:16;15.13;;;7.53;;
26052;SDS011;13826;51.186;4.450;2022-10-30T01:40:47;20.88;;;8.18;;
26052;SDS011;13826;51.186;4.450;2022-10-30T01:43:13;24.27;;;7.95;;
26052;SDS011;13826;51.186;4.450;2022-10-30T01:56:28;28.05;;;8.25;;
26052;SDS011;13826;51.186;4.450;2022-10-30T01:59:02;18.58;;;8.73;;
26052;SDS011;13826;51.186;4.450;2022-10-30T02:01:34;19.88;;;9.63;;
26052;SDS011;13826;51.186;4.450;2022-10-30T02:04:02;23.20;;;9.10;;
26052;SDS011;13826;51.186;4.450;2022-10-30T02:06:28;22.50;;;9.15;;
26052;SDS011;13826;51.186;4.450;2022-10-30T02:08:54;33.10;;;9.38;;
26052;SDS011;13826;51.186;4.450;2022-10-30T02:11:21;18.90;;;9.00;;
26052;SDS011;13826;51.186;4.450;2022-10-30T02:13:49;22.73;;;9.93;;
26052;SDS011;13826;51.186;4.450;2022-10-30T02:16:18;18.80;;;8.80;;
26052;SDS011;13826;51.186;4.450;2022-10-30T02:18:44;26.30;;;8.95;;
26052;SDS011;13826;51.186;4.450;2022-10-30T02:21:09;20.88;;;8.38;;
26052;SDS011;13826;51.186;4.450;2022-10-30T02:23:35;21.90;;;8.30;;
26052;SDS011;13826;51.186;4.450;2022-10-30T02:26:01;22.17;;;7.53;;
26052;SDS011;13826;51.186;4.450;2022-10-30T02:28:27;25.30;;;9.57;;
26052;SDS011;13826;51.186;4.450;2022-10-30T02:30:53;23.58;;;7.57;;
26052;SDS011;13826;51.186;4.450;2022-10-30T02:33:18;22.58;;;7.90;;
26052;SDS011;13826;51.186;4.450;2022-10-30T02:35:44;18.42;;;7.43;;
26052;SDS011;13826;51.186;4.450;2022-10-30T02:38:10;19.77;;;7.45;;
26052;SDS011;13826;51.186;4.450;2022-10-30T02:40:35;17.20;;;8.10;;
26052;SDS011;13826;51.186;4.450;2022-10-30T02:43:01;22.92;;;7.85;;
26052;SDS011;13826;51.186;4.450;2022-10-30T02:45:27;20.48;;;7.72;;
26052;SDS011;13826;51.186;4.450;2022-10-30T02:47:53;21.73;;;8.00;;
26052;SDS011;13826;51.186;4.450;2022-10-30T02:50:19;17.02;;;7.75;;
26052;SDS011;13826;51.186;4.450;2022-10-30T02:52:44;24.42;;;8.23;;
26052;SDS011;13826;51.186;4.450;2022-10-30T02:55:10;20.95;;;7.95;;
26052;SDS011;13826;51.186;4.450;2022-10-30T02:57:36;17.65;;;7.90;;
26052;SDS011;13826;51.186;4.450;2022-10-30T03:00:02;20.45;;;7.13;;
26052;SDS011;13826;51.186;4.450;2022-10-30T03:02:28;19.20;;;7.47;;
26052;SDS011;13826;51.186;4.450;2022-10-30T03:04:54;26.63;;;8.50;;
26052;SDS011;13826;51.186;4.450;2022-10-30T03:07:20;30.60;;;8.90;;
26052;SDS011;13826;51.186;4.450;2022-10-30T03:09:48;25.20;;;7.53;;
26052;SDS011;13826;51.186;4.450;2022-10-30T03:12:16;22.05;;;8.07;;
26052;SDS011;13826;51.186;4.450;2022-10-30T03:14:42;24.65;;;8.35;;
26052;SDS011;13826;51.186;4.450;2022-10-30T03:17:07;19.08;;;6.88;;
26052;SDS011;13826;51.186;4.450;2022-10-30T03:19:33;17.08;;;8.15;;
26052;SDS011;13826;51.186;4.450;2022-10-30T03:21:59;23.35;;;7.68;;
26052;SDS011;13826;51.186;4.450;2022-10-30T03:24:25;22.95;;;8.65;;
26052;SDS011;13826;51.186;4.450;2022-10-30T03:26:51;32.50;;;7.82;;
26052;SDS011;13826;51.186;4.450;2022-10-30T03:29:16;21.83;;;8.00;;
26052;SDS011;13826;51.186;4.450;2022-10-30T03:31:42;31.30;;;7.72;;
26052;SDS011;13826;51.186;4.450;2022-10-30T03:34:08;23.33;;;7.85;;
26052;SDS011;13826;51.186;4.450;2022-10-30T03:36:33;24.73;;;7.78;;
26052;SDS011;13826;51.186;4.450;2022-10-30T03:38:59;18.10;;;7.88;;
26052;SDS011;13826;51.186;4.450;2022-10-30T03:41:25;17.63;;;7.50;;
26052;SDS011;13826;51.186;4.450;2022-10-30T03:43:50;20.80;;;8.02;;
26052;SDS011;13826;51.186;4.450;2022-10-30T03:46:16;27.63;;;8.35;;
26052;SDS011;13826;51.186;4.450;2022-10-30T03:48:42;16.25;;;7.47;;
26052;SDS011;13826;51.186;4.450;2022-10-30T03:51:07;19.17;;;8.07;;
26052;SDS011;13826;51.186;4.450;2022-10-30T03:53:33;17.42;;;8.27;;
26052;SDS011;13826;51.186;4.450;2022-10-30T03:56:00;22.98;;;7.60;;
26052;SDS011;13826;51.186;4.450;2022-10-30T03:58:27;17.77;;;7.53;;
26052;SDS011;13826;51.186;4.450;2022-10-30T04:00:53;19.92;;;8.15;;
26052;SDS011;13826;51.186;4.450;2022-10-30T04:03:19;20.15;;;7.43;;
26052;SDS011;13826;51.186;4.450;2022-10-30T04:05:45;20.83;;;8.25;;
26052;SDS011;13826;51.186;4.450;2022-10-30T04:08:14;25.83;;;8.43;;
26052;SDS011;13826;51.186;4.450;2022-10-30T04:10:44;21.65;;;7.47;;
26052;SDS011;13826;51.186;4.450;2022-10-30T04:13:12;18.55;;;7.45;;
26052;SDS011;13826;51.186;4.450;2022-10-30T04:15:39;26.17;;;7.60;;
26052;SDS011;13826;51.186;4.450;2022-10-30T04:18:05;16.70;;;7.20;;
26052;SDS011;13826;51.186;4.450;2022-10-30T04:20:31;19.92;;;7.72;;
26052;SDS011;13826;51.186;4.450;2022-10-30T04:23:00;15.80;;;6.70;;
26052;SDS011;13826;51.186;4.450;2022-10-30T04:25:28;14.63;;;7.43;;
26052;SDS011;13826;51.186;4.450;2022-10-30T04:27:54;19.30;;;7.13;;
26052;SDS011;13826;51.186;4.450;2022-10-30T04:30:20;20.00;;;7.78;;
26052;SDS011;13826;51.186;4.450;2022-10-30T04:32:46;20.40;;;8.25;;
26052;SDS011;13826;51.186;4.450;2022-10-30T04:35:16;25.25;;;8.85;;
26052;SDS011;13826;51.186;4.450;2022-10-30T04:37:50;20.92;;;9.05;;
26052;SDS011;13826;51.186;4.450;2022-10-30T04:40:20;26.02;;;8.13;;
26052;SDS011;13826;51.186;4.450;2022-10-30T04:42:47;21.05;;;8.00;;
26052;SDS011;13826;51.186;4.450;2022-10-30T04:45:12;22.83;;;7.03;;
26052;SDS011;13826;51.186;4.450;2022-10-30T04:47:38;19.92;;;7.88;;
26052;SDS011;13826;51.186;4.450;2022-10-30T04:50:04;12.73;;;7.63;;
26052;SDS011;13826;51.186;4.450;2022-10-30T04:52:30;23.27;;;8.20;;
26052;SDS011;13826;51.186;4.450;2022-10-30T04:54:56;18.98;;;7.28;;
26052;SDS011;13826;51.186;4.450;2022-10-30T04:57:22;22.58;;;8.20;;
26052;SDS011;13826;51.186;4.450;2022-10-30T04:59:47;17.92;;;6.80;;
26052;SDS011;13826;51.186;4.450;2022-10-30T05:02:13;14.38;;;7.10;;
26052;SDS011;13826;51.186;4.450;2022-10-30T05:04:39;26.17;;;8.30;;
26052;SDS011;13826;51.186;4.450;2022-10-30T05:07:05;23.30;;;8.18;;
26052;SDS011;13826;51.186;4.450;2022-10-30T05:09:31;28.33;;;8.60;;
26052;SDS011;13826;51.186;4.450;2022-10-30T05:11:57;18.65;;;8.02;;
26052;SDS011;13826;51.186;4.450;2022-10-30T05:14:23;19.85;;;7.60;;
26052;SDS011;13826;51.186;4.450;2022-10-30T05:16:48;21.45;;;7.63;;
26052;SDS011;13826;51.186;4.450;2022-10-30T05:19:14;24.48;;;7.72;;
26052;SDS011;13826;51.186;4.450;2022-10-30T05:21:39;19.40;;;6.85;;
26052;SDS011;13826;51.186;4.450;2022-10-30T05:24:05;19.75;;;6.93;;
26052;SDS011;13826;51.186;4.450;2022-10-30T05:26:31;19.75;;;7.63;;
26052;SDS011;13826;51.186;4.450;2022-10-30T05:28:57;20.33;;;8.90;;
26052;SDS011;13826;51.186;4.450;2022-10-30T05:31:22;19.48;;;8.75;;
26052;SDS011;13826;51.186;4.450;2022-10-30T05:33:48;23.38;;;8.35;;
26052;SDS011;13826;51.186;4.450;2022-10-30T05:36:14;19.50;;;7.18;;
26052;SDS011;13826;51.186;4.450;2022-10-30T05:38:39;17.83;;;7.30;;
26052;SDS011;13826;51.186;4.450;2022-10-30T05:41:05;15.73;;;7.57;;
26052;SDS011;13826;51.186;4.450;2022-10-30T05:43:31;23.25;;;10.25;;
26052;SDS011;13826;51.186;4.450;2022-10-30T05:45:56;21.65;;;7.72;;
26052;SDS011;13826;51.186;4.450;2022-10-30T05:48:22;23.42;;;9.90;;
26052;SDS011;13826;51.186;4.450;2022-10-30T05:50:48;18.60;;;8.10;;
26052;SDS011;13826;51.186;4.450;2022-10-30T05:53:13;22.35;;;9.05;;
26052;SDS011;13826;51.186;4.450;2022-10-30T05:55:39;23.35;;;8.13;;
26052;SDS011;13826;51.186;4.450;2022-10-30T05:58:05;20.10;;;8.50;;
26052;SDS011;13826;51.186;4.450;2022-10-30T06:00:32;23.33;;;8.82;;
26052;SDS011;13826;51.186;4.450;2022-10-30T06:03:00;25.95;;;9.77;;
26052;SDS011;13826;51.186;4.450;2022-10-30T06:05:31;25.55;;;8.65;;
26052;SDS011;13826;51.186;4.450;2022-10-30T06:07:59;22.95;;;9.45;;
26052;SDS011;13826;51.186;4.450;2022-10-30T06:10:25;18.83;;;9.50;;
26052;SDS011;13826;51.186;4.450;2022-10-30T06:12:52;17.60;;;8.20;;
26052;SDS011;13826;51.186;4.450;2022-10-30T06:15:28;22.90;;;8.73;;
26052;SDS011;13826;51.186;4.450;2022-10-30T06:17:54;22.83;;;8.68;;
26052;SDS011;13826;51.186;4.450;2022-10-30T06:20:22;22.33;;;9.15;;
26052;SDS011;13826;51.186;4.450;2022-10-30T06:23:22;28.65;;;10.40;;
26052;SDS011;13826;51.186;4.450;2022-10-30T06:25:41;22.05;;;9.02;;
26052;SDS011;13826;51.186;4.450;2022-10-30T06:28:08;21.52;;;9.13;;
26052;SDS011;13826;51.186;4.450;2022-10-30T06:30:35;20.35;;;8.98;;
26052;SDS011;13826;51.186;4.450;2022-10-30T06:33:01;21.85;;;8.70;;
26052;SDS011;13826;51.186;4.450;2022-10-30T06:35:28;17.15;;;8.05;;
26052;SDS011;13826;51.186;4.450;2022-10-30T06:37:55;19.92;;;8.98;;
26052;SDS011;13826;51.186;4.450;2022-10-30T06:40:24;19.83;;;8.93;;
26052;SDS011;13826;51.186;4.450;2022-10-30T06:42:50;23.00;;;10.13;;
26052;SDS011;13826;51.186;4.450;2022-10-30T06:45:18;22.48;;;8.70;;
26052;SDS011;13826;51.186;4.450;2022-10-30T06:47:44;20.77;;;8.90;;
26052;SDS011;13826;51.186;4.450;2022-10-30T06:50:11;21.42;;;9.05;;
26052;SDS011;13826;51.186;4.450;2022-10-30T06:52:38;24.08;;;8.50;;
26052;SDS011;13826;51.186;4.450;2022-10-30T06:55:04;24.17;;;8.52;;
26052;SDS011;13826;51.186;4.450;2022-10-30T06:57:30;24.45;;;8.90;;
26052;SDS011;13826;51.186;4.450;2022-10-30T06:59:56;31.23;;;9.32;;
26052;SDS011;13826;51.186;4.450;2022-10-30T07:02:21;20.60;;;8.70;;
26052;SDS011;13826;51.186;4.450;2022-10-30T07:04:47;20.77;;;9.02;;
26052;SDS011;13826;51.186;4.450;2022-10-30T07:07:13;18.45;;;8.25;;
26052;SDS011;13826;51.186;4.450;2022-10-30T07:09:39;20.67;;;8.15;;
26052;SDS011;13826;51.186;4.450;2022-10-30T07:12:06;29.40;;;8.73;;
26052;SDS011;13826;51.186;4.450;2022-10-30T07:14:32;19.15;;;7.68;;
26052;SDS011;13826;51.186;4.450;2022-10-30T07:16:58;20.35;;;8.23;;
26052;SDS011;13826;51.186;4.450;2022-10-30T07:19:23;17.17;;;8.00;;
26052;SDS011;13826;51.186;4.450;2022-10-30T07:21:49;22.95;;;9.50;;
26052;SDS011;13826;51.186;4.450;2022-10-30T07:24:15;22.55;;;9.00;;
26052;SDS011;13826;51.186;4.450;2022-10-30T07:26:40;27.40;;;8.52;;
26052;SDS011;13826;51.186;4.450;2022-10-30T07:29:06;19.98;;;8.75;;
26052;SDS011;13826;51.186;4.450;2022-10-30T07:31:32;19.50;;;8.68;;
26052;SDS011;13826;51.186;4.450;2022-10-30T07:33:58;21.42;;;8.30;;
26052;SDS011;13826;51.186;4.450;2022-10-30T07:36:23;21.33;;;7.93;;
26052;SDS011;13826;51.186;4.450;2022-10-30T07:38:49;18.02;;;8.25;;
26052;SDS011;13826;51.186;4.450;2022-10-30T07:41:16;23.80;;;7.75;;
26052;SDS011;13826;51.186;4.450;2022-10-30T07:43:42;23.90;;;8.15;;
26052;SDS011;13826;51.186;4.450;2022-10-30T07:46:08;20.00;;;7.82;;
26052;SDS011;13826;51.186;4.450;2022-10-30T07:48:34;16.95;;;8.40;;
26052;SDS011;13826;51.186;4.450;2022-10-30T07:51:00;18.38;;;8.05;;
26052;SDS011;13826;51.186;4.450;2022-10-30T07:53:26;19.45;;;7.85;;
26052;SDS011;13826;51.186;4.450;2022-10-30T07:55:54;16.70;;;8.82;;
26052;SDS011;13826;51.186;4.450;2022-10-30T07:58:20;22.20;;;7.63;;
26052;SDS011;13826;51.186;4.450;2022-10-30T08:00:46;24.17;;;8.75;;
26052;SDS011;13826;51.186;4.450;2022-10-30T08:03:12;16.77;;;7.97;;
26052;SDS011;13826;51.186;4.450;2022-10-30T08:05:38;21.45;;;8.18;;
26052;SDS011;13826;51.186;4.450;2022-10-30T08:08:05;18.25;;;8.13;;
26052;SDS011;13826;51.186;4.450;2022-10-30T08:10:31;21.70;;;8.57;;
26052;SDS011;13826;51.186;4.450;2022-10-30T08:12:56;21.48;;;7.60;;
26052;SDS011;13826;51.186;4.450;2022-10-30T08:15:22;21.63;;;9.73;;
26052;SDS011;13826;51.186;4.450;2022-10-30T08:17:48;21.75;;;8.82;;
26052;SDS011;13826;51.186;4.450;2022-10-30T08:20:16;17.48;;;7.60;;
26052;SDS011;13826;51.186;4.450;2022-10-30T08:22:44;21.08;;;6.70;;
26052;SDS011;13826;51.186;4.450;2022-10-30T08:25:14;24.38;;;8.15;;
26052;SDS011;13826;51.186;4.450;2022-10-30T08:27:50;21.02;;;8.57;;
26052;SDS011;13826;51.186;4.450;2022-10-30T08:30:24;16.58;;;7.90;;
26052;SDS011;13826;51.186;4.450;2022-10-30T08:32:51;19.75;;;6.85;;
26052;SDS011;13826;51.186;4.450;2022-10-30T08:35:20;20.58;;;7.60;;
26052;SDS011;13826;51.186;4.450;2022-10-30T08:37:46;21.67;;;8.02;;
26052;SDS011;13826;51.186;4.450;2022-10-30T08:40:11;22.88;;;8.55;;
26052;SDS011;13826;51.186;4.450;2022-10-30T08:42:37;21.85;;;7.50;;
26052;SDS011;13826;51.186;4.450;2022-10-30T08:45:03;19.33;;;7.90;;
26052;SDS011;13826;51.186;4.450;2022-10-30T08:47:30;19.23;;;8.20;;
26052;SDS011;13826;51.186;4.450;2022-10-30T08:49:55;20.40;;;7.53;;
26052;SDS011;13826;51.186;4.450;2022-10-30T08:52:21;19.73;;;7.82;;
26052;SDS011;13826;51.186;4.450;2022-10-30T08:54:47;21.40;;;7.88;;
26052;SDS011;13826;51.186;4.450;2022-10-30T08:57:12;20.80;;;7.85;;
26052;SDS011;13826;51.186;4.450;2022-10-30T08:59:39;17.05;;;6.75;;
26052;SDS011;13826;51.186;4.450;2022-10-30T09:02:05;21.70;;;7.55;;
26052;SDS011;13826;51.186;4.450;2022-10-30T09:04:32;20.05;;;7.80;;
26052;SDS011;13826;51.186;4.450;2022-10-30T09:06:59;19.77;;;7.35;;
26052;SDS011;13826;51.186;4.450;2022-10-30T09:09:25;23.58;;;7.30;;
26052;SDS011;13826;51.186;4.450;2022-10-30T09:11:51;18.70;;;7.05;;
26052;SDS011;13826;51.186;4.450;2022-10-30T09:14:17;20.35;;;6.80;;
26052;SDS011;13826;51.186;4.450;2022-10-30T09:16:42;19.65;;;7.97;;
26052;SDS011;13826;51.186;4.450;2022-10-30T09:19:08;23.35;;;7.15;;
26052;SDS011;13826;51.186;4.450;2022-10-30T09:21:34;25.92;;;7.32;;
26052;SDS011;13826;51.186;4.450;2022-10-30T09:24:00;19.02;;;6.63;;
26052;SDS011;13826;51.186;4.450;2022-10-30T09:26:25;22.33;;;7.25;;
26052;SDS011;13826;51.186;4.450;2022-10-30T09:28:51;19.88;;;7.00;;
26052;SDS011;13826;51.186;4.450;2022-10-30T09:31:17;13.60;;;6.45;;
26052;SDS011;13826;51.186;4.450;2022-10-30T09:33:42;27.15;;;6.78;;
26052;SDS011;13826;51.186;4.450;2022-10-30T09:36:08;23.77;;;8.02;;
26052;SDS011;13826;51.186;4.450;2022-10-30T09:38:34;21.40;;;6.85;;
26052;SDS011;13826;51.186;4.450;2022-10-30T09:43:47;17.80;;;6.47;;
26052;SDS011;13826;51.186;4.450;2022-10-30T09:46:23;22.77;;;7.03;;
26052;SDS011;13826;51.186;4.450;2022-10-30T09:52:23;14.07;;;6.47;;
26052;SDS011;13826;51.186;4.450;2022-10-30T09:55:28;17.85;;;5.75;;
26052;SDS011;13826;51.186;4.450;2022-10-30T09:58:10;24.27;;;6.88;;
26052;SDS011;13826;51.186;4.450;2022-10-30T10:00:45;22.77;;;6.38;;
26052;SDS011;13826;51.186;4.450;2022-10-30T10:06:12;25.15;;;6.72;;
26052;SDS011;13826;51.186;4.450;2022-10-30T10:08:47;19.15;;;5.78;;
26052;SDS011;13826;51.186;4.450;2022-10-30T10:11:36;19.40;;;6.32;;
26052;SDS011;13826;51.186;4.450;2022-10-30T10:16:52;15.45;;;5.68;;
26052;SDS011;13826;51.186;4.450;2022-10-30T10:19:22;21.65;;;5.90;;
26052;SDS011;13826;51.186;4.450;2022-10-30T10:22:18;17.63;;;5.75;;
26052;SDS011;13826;51.186;4.450;2022-10-30T10:24:44;22.88;;;6.38;;
26052;SDS011;13826;51.186;4.450;2022-10-30T10:30:16;25.67;;;6.35;;
26052;SDS011;13826;51.186;4.450;2022-10-30T10:38:30;21.90;;;5.32;;
26052;SDS011;13826;51.186;4.450;2022-10-30T10:54:20;18.60;;;5.75;;
26052;SDS011;13826;51.186;4.450;2022-10-30T10:56:48;17.17;;;5.97;;
26052;SDS011;13826;51.186;4.450;2022-10-30T10:59:17;20.48;;;6.03;;
26052;SDS011;13826;51.186;4.450;2022-10-30T11:01:49;19.50;;;5.70;;
26052;SDS011;13826;51.186;4.450;2022-10-30T11:07:01;20.08;;;7.18;;
26052;SDS011;13826;51.186;4.450;2022-10-30T11:09:41;24.75;;;7.22;;
26052;SDS011;13826;51.186;4.450;2022-10-30T11:12:07;17.67;;;5.88;;
26052;SDS011;13826;51.186;4.450;2022-10-30T11:14:33;18.13;;;6.20;;
26052;SDS011;13826;51.186;4.450;2022-10-30T11:19:31;24.20;;;6.25;;
26052;SDS011;13826;51.186;4.450;2022-10-30T11:21:57;30.83;;;7.05;;
26052;SDS011;13826;51.186;4.450;2022-10-30T11:24:30;16.73;;;6.15;;
26052;SDS011;13826;51.186;4.450;2022-10-30T11:27:24;16.40;;;5.65;;
26052;SDS011;13826;51.186;4.450;2022-10-30T11:29:53;13.30;;;5.97;;
26052;SDS011;13826;51.186;4.450;2022-10-30T11:32:25;17.58;;;5.78;;
26052;SDS011;13826;51.186;4.450;2022-10-30T11:34:59;18.35;;;6.55;;
26052;SDS011;13826;51.186;4.450;2022-10-30T11:37:31;17.20;;;6.63;;
26052;SDS011;13826;51.186;4.450;2022-10-30T11:42:39;15.63;;;6.53;;
26052;SDS011;13826;51.186;4.450;2022-10-30T11:45:27;21.05;;;6.63;;
26052;SDS011;13826;51.186;4.450;2022-10-30T11:47:53;16.77;;;6.00;;
26052;SDS011;13826;51.186;4.450;2022-10-30T11:50:22;18.13;;;6.68;;
26052;SDS011;13826;51.186;4.450;2022-10-30T11:52:58;19.67;;;6.55;;
26052;SDS011;13826;51.186;4.450;2022-10-30T11:55:38;22.17;;;6.68;;
26052;SDS011;13826;51.186;4.450;2022-10-30T11:58:16;25.58;;;7.45;;
26052;SDS011;13826;51.186;4.450;2022-10-30T12:01:00;18.92;;;6.68;;
26052;SDS011;13826;51.186;4.450;2022-10-30T12:03:34;20.20;;;6.85;;
26052;SDS011;13826;51.186;4.450;2022-10-30T12:06:09;17.25;;;6.65;;
26052;SDS011;13826;51.186;4.450;2022-10-30T12:11:45;15.75;;;5.90;;
26052;SDS011;13826;51.186;4.450;2022-10-30T12:14:22;17.75;;;6.40;;
26052;SDS011;13826;51.186;4.450;2022-10-30T12:16:51;16.85;;;6.72;;
26052;SDS011;13826;51.186;4.450;2022-10-30T12:19:20;18.23;;;6.07;;
26052;SDS011;13826;51.186;4.450;2022-10-30T12:21:49;17.38;;;6.85;;
26052;SDS011;13826;51.186;4.450;2022-10-30T12:26:51;22.17;;;6.63;;
26052;SDS011;13826;51.186;4.450;2022-10-30T12:29:19;14.32;;;5.50;;
26052;SDS011;13826;51.186;4.450;2022-10-30T12:31:58;22.35;;;7.32;;
26052;SDS011;13826;51.186;4.450;2022-10-30T12:42:20;19.10;;;6.10;;
26052;SDS011;13826;51.186;4.450;2022-10-30T12:49:50;20.85;;;6.13;;
26052;SDS011;13826;51.186;4.450;2022-10-30T12:52:30;22.65;;;5.68;;
26052;SDS011;13826;51.186;4.450;2022-10-30T12:58:00;24.02;;;5.75;;
26052;SDS011;13826;51.186;4.450;2022-10-30T13:01:08;18.50;;;5.65;;
26052;SDS011;13826;51.186;4.450;2022-10-30T13:03:50;19.75;;;5.70;;
26052;SDS011;13826;51.186;4.450;2022-10-30T13:06:22;16.65;;;5.38;;
26052;SDS011;13826;51.186;4.450;2022-10-30T13:14:15;14.95;;;5.63;;
26052;SDS011;13826;51.186;4.450;2022-10-30T13:16:44;22.30;;;5.57;;
26052;SDS011;13826;51.186;4.450;2022-10-30T13:19:10;23.58;;;6.43;;
26052;SDS011;13826;51.186;4.450;2022-10-30T13:24:39;14.65;;;5.57;;
26052;SDS011;13826;51.186;4.450;2022-10-30T13:33:37;18.88;;;6.28;;
26052;SDS011;13826;51.186;4.450;2022-10-30T13:36:17;23.15;;;5.97;;
26052;SDS011;13826;51.186;4.450;2022-10-30T13:44:03;12.30;;;4.88;;
26052;SDS011;13826;51.186;4.450;2022-10-30T13:49:39;19.33;;;5.75;;
26052;SDS011;13826;51.186;4.450;2022-10-30T13:52:20;19.83;;;6.65;;
26052;SDS011;13826;51.186;4.450;2022-10-30T13:54:50;23.63;;;6.30;;
26052;SDS011;13826;51.186;4.450;2022-10-30T14:08:58;20.65;;;6.28;;
26052;SDS011;13826;51.186;4.450;2022-10-30T14:11:32;14.38;;;6.28;;
26052;SDS011;13826;51.186;4.450;2022-10-30T14:14:31;16.45;;;5.82;;
26052;SDS011;13826;51.186;4.450;2022-10-30T14:19:31;19.33;;;5.55;;
26052;SDS011;13826;51.186;4.450;2022-10-30T14:22:01;18.45;;;5.25;;
26052;SDS011;13826;51.186;4.450;2022-10-30T14:24:33;14.95;;;6.22;;
26052;SDS011;13826;51.186;4.450;2022-10-30T14:32:00;13.30;;;5.97;;
26052;SDS011;13826;51.186;4.450;2022-10-30T14:39:53;21.20;;;7.30;;
26052;SDS011;13826;51.186;4.450;2022-10-30T14:45:25;19.08;;;7.57;;
26052;SDS011;13826;51.186;4.450;2022-10-30T15:10:05;23.17;;;8.27;;
26052;SDS011;13826;51.186;4.450;2022-10-30T15:15:39;16.40;;;5.47;;
26052;SDS011;13826;51.186;4.450;2022-10-30T15:18:08;12.18;;;4.20;;
26052;SDS011;13826;51.186;4.450;2022-10-30T15:20:39;13.20;;;4.20;;
26052;SDS011;13826;51.186;4.450;2022-10-30T15:23:10;12.65;;;3.90;;
26052;SDS011;13826;51.186;4.450;2022-10-30T15:26:03;15.23;;;3.85;;
26052;SDS011;13826;51.186;4.450;2022-10-30T15:28:33;12.45;;;3.40;;
26052;SDS011;13826;51.186;4.450;2022-10-30T15:31:12;13.57;;;2.63;;
26052;SDS011;13826;51.186;4.450;2022-10-30T15:33:46;8.80;;;2.50;;
26052;SDS011;13826;51.186;4.450;2022-10-30T15:36:22;12.43;;;2.50;;
26052;SDS011;13826;51.186;4.450;2022-10-30T15:41:30;15.57;;;2.72;;
26052;SDS011;13826;51.186;4.450;2022-10-30T15:43:58;12.18;;;2.80;;
26052;SDS011;13826;51.186;4.450;2022-10-30T15:46:23;17.15;;;3.20;;
26052;SDS011;13826;51.186;4.450;2022-10-30T15:48:49;16.95;;;3.85;;
26052;SDS011;13826;51.186;4.450;2022-10-30T15:51:16;14.50;;;2.88;;
26052;SDS011;13826;51.186;4.450;2022-10-30T15:53:45;11.45;;;3.08;;
26052;SDS011;13826;51.186;4.450;2022-10-30T15:56:24;16.50;;;3.53;;
26052;SDS011;13826;51.186;4.450;2022-10-30T15:58:54;19.45;;;3.55;;
26052;SDS011;13826;51.186;4.450;2022-10-30T16:01:24;17.52;;;3.53;;
26052;SDS011;13826;51.186;4.450;2022-10-30T16:03:51;12.02;;;3.30;;
26052;SDS011;13826;51.186;4.450;2022-10-30T16:06:18;13.45;;;3.30;;
26052;SDS011;13826;51.186;4.450;2022-10-30T16:08:47;11.43;;;3.30;;
26052;SDS011;13826;51.186;4.450;2022-10-30T16:11:13;15.40;;;3.88;;
26052;SDS011;13826;51.186;4.450;2022-10-30T16:13:40;14.82;;;4.35;;
26052;SDS011;13826;51.186;4.450;2022-10-30T16:16:10;11.55;;;3.95;;
26052;SDS011;13826;51.186;4.450;2022-10-30T16:18:40;17.98;;;4.13;;
26052;SDS011;13826;51.186;4.450;2022-10-30T16:21:08;12.15;;;3.65;;
26052;SDS011;13826;51.186;4.450;2022-10-30T16:23:41;14.82;;;3.78;;
26052;SDS011;13826;51.186;4.450;2022-10-30T16:26:31;10.52;;;3.65;;
26052;SDS011;13826;51.186;4.450;2022-10-30T16:31:37;10.00;;;3.80;;
26052;SDS011;13826;51.186;4.450;2022-10-30T16:34:03;14.73;;;3.50;;
26052;SDS011;13826;51.186;4.450;2022-10-30T16:36:34;17.27;;;4.07;;
26052;SDS011;13826;51.186;4.450;2022-10-30T16:39:01;15.32;;;3.63;;
26052;SDS011;13826;51.186;4.450;2022-10-30T16:41:27;11.63;;;3.60;;
26052;SDS011;13826;51.186;4.450;2022-10-30T16:44:06;15.30;;;3.95;;
26052;SDS011;13826;51.186;4.450;2022-10-30T16:46:53;10.38;;;3.20;;
26052;SDS011;13826;51.186;4.450;2022-10-30T16:49:29;9.40;;;3.75;;
26052;SDS011;13826;51.186;4.450;2022-10-30T16:51:58;14.20;;;3.88;;
26052;SDS011;13826;51.186;4.450;2022-10-30T16:54:28;12.70;;;3.90;;
26052;SDS011;13826;51.186;4.450;2022-10-30T16:56:57;12.90;;;3.63;;
26052;SDS011;13826;51.186;4.450;2022-10-30T16:59:34;13.52;;;4.25;;
26052;SDS011;13826;51.186;4.450;2022-10-30T17:02:11;11.80;;;4.72;;
26052;SDS011;13826;51.186;4.450;2022-10-30T17:04:41;15.32;;;4.80;;
26052;SDS011;13826;51.186;4.450;2022-10-30T17:07:14;17.73;;;4.95;;
26052;SDS011;13826;51.186;4.450;2022-10-30T17:09:48;17.48;;;5.22;;
26052;SDS011;13826;51.186;4.450;2022-10-30T17:12:20;18.83;;;5.13;;
26052;SDS011;13826;51.186;4.450;2022-10-30T17:14:52;22.05;;;4.97;;
26052;SDS011;13826;51.186;4.450;2022-10-30T17:17:34;14.40;;;5.50;;
26052;SDS011;13826;51.186;4.450;2022-10-30T17:20:13;13.73;;;5.20;;
26052;SDS011;13826;51.186;4.450;2022-10-30T17:22:51;16.83;;;5.05;;
26052;SDS011;13826;51.186;4.450;2022-10-30T17:25:42;16.88;;;5.18;;
26052;SDS011;13826;51.186;4.450;2022-10-30T17:28:25;20.20;;;6.22;;
26052;SDS011;13826;51.186;4.450;2022-10-30T17:30:52;19.15;;;6.88;;
26052;SDS011;13826;51.186;4.450;2022-10-30T17:33:32;22.75;;;7.18;;
26052;SDS011;13826;51.186;4.450;2022-10-30T17:35:59;19.88;;;6.07;;
26052;SDS011;13826;51.186;4.450;2022-10-30T17:38:26;17.35;;;6.60;;